Station History

Weather Underground - logo

Station Historical Data
Daily Summary for February 11, 2018 Units:  English    Metric   Both
« Previous Day
Next Day »
Daily Weekly Monthly Yearly Custom
  High: Low: Average:
Temperature: 69.8 °F 40.9 °F 53.7 °F
Dew Point: 44.9 °F 30.9 °F 40 °F
Humidity: 91 % 27 % 64 %
Wind Speed: 5.8 mph 0.0 mph 0.8 mph
Wind Gust: 5.8 mph - -
Wind:- - SW
Pressure: 30.02 in 29.72 in -
Precipitation: 0.00 in    
Historical Graphs
 
 
Tabular Data for February 11, 2018
Time Temperature Dew Point Pressure Wind Wind Speed Wind Gust Humidity Rainfall Rate (Hourly)
00:00 48.8 °F 41.9 °F 29.94 in Calm     77 % 0.00 in
00:05 48.6 °F 41.7 °F 29.94 in Calm     77 % 0.00 in
00:10 48.5 °F 42.0 °F 29.94 in Calm     78 % 0.00 in
00:15 48.3 °F 41.8 °F 29.94 in Calm     78 % 0.00 in
00:20 48.1 °F 41.6 °F 29.94 in Calm     78 % 0.00 in
00:25 47.9 °F 41.4 °F 29.94 in Calm     78 % 0.00 in
00:30 47.6 °F 41.1 °F 29.94 in Calm     78 % 0.00 in
00:35 47.2 °F 41.0 °F 29.94 in Calm     79 % 0.00 in
00:40 46.9 °F 41.4 °F 29.94 in Calm     81 % 0.00 in
00:45 46.9 °F 41.1 °F 29.94 in Calm     80 % 0.00 in
00:50 46.9 °F 41.1 °F 29.94 in Calm     80 % 0.00 in
00:55 46.8 °F 41.0 °F 29.94 in Calm     80 % 0.00 in
01:00 46.4 °F 40.6 °F 29.94 in Calm     80 % 0.00 in
01:05 46.1 °F 40.6 °F 29.95 in Calm     81 % 0.00 in
01:10 45.6 °F 40.1 °F 29.95 in Calm     81 % 0.00 in
01:15 45.3 °F 40.1 °F 29.95 in Calm     82 % 0.00 in
01:20 45.2 °F 40.0 °F 29.95 in Calm     82 % 0.00 in
01:25 45.1 °F 39.9 °F 29.96 in Calm     82 % 0.00 in
01:30 44.9 °F 40.0 °F 29.96 in Calm     83 % 0.00 in
01:35 44.6 °F 39.8 °F 29.96 in Calm     83 % 0.00 in
01:40 44.5 °F 40.0 °F 29.96 in Calm     84 % 0.00 in
01:45 44.6 °F 40.1 °F 29.96 in Calm     84 % 0.00 in
01:50 44.6 °F 40.1 °F 29.96 in Calm     84 % 0.00 in
01:55 44.7 °F 40.2 °F 29.97 in Calm     84 % 0.00 in
02:00 44.6 °F 40.1 °F 29.97 in Calm     84 % 0.00 in
02:05 44.5 °F 40.0 °F 29.97 in Calm     84 % 0.00 in
02:10 44.7 °F 40.2 °F 29.97 in Calm     84 % 0.00 in
02:15 44.9 °F 40.0 °F 29.98 in NE 1.2 mph 1.2 mph 83 % 0.00 in
02:20 45.2 °F 40.3 °F 29.98 in Calm     83 % 0.00 in
02:25 45.5 °F 40.3 °F 29.98 in NE 1.2 mph 1.2 mph 82 % 0.00 in
02:30 45.7 °F 40.5 °F 29.98 in NE 1.2 mph   82 % 0.00 in
02:35 45.7 °F 40.8 °F 29.98 in NE 1.2 mph 1.2 mph 83 % 0.00 in
02:40 45.5 °F 40.6 °F 29.98 in NE 1.2 mph   83 % 0.00 in
02:45 45.5 °F 40.6 °F 29.98 in Calm     83 % 0.00 in
02:50 45.3 °F 40.4 °F 29.98 in Calm     83 % 0.00 in
02:55 45.4 °F 40.8 °F 29.98 in NE 1.2 mph   84 % 0.00 in
03:00 45.5 °F 41.3 °F 29.98 in Calm     85 % 0.00 in
03:05 45.6 °F 41.4 °F 29.98 in ESE 1.2 mph 1.2 mph 85 % 0.00 in
03:10 45.5 °F 41.3 °F 29.97 in Calm     85 % 0.00 in
03:15 45.3 °F 41.1 °F 29.98 in ESE 2.3 mph 2.3 mph 85 % 0.00 in
03:20 45.3 °F 41.1 °F 29.97 in ESE 1.2 mph 1.2 mph 85 % 0.00 in
03:25 45.3 °F 40.7 °F 29.98 in ESE 1.2 mph 1.2 mph 84 % 0.00 in
03:30 45.4 °F 40.8 °F 29.98 in ESE 1.2 mph 1.2 mph 84 % 0.00 in
03:35 45.4 °F 40.8 °F 29.99 in Calm     84 % 0.00 in
03:40 45.2 °F 41.0 °F 29.99 in ESE 1.2 mph   85 % 0.00 in
03:45 45.1 °F 40.9 °F 30.00 in ESE 1.2 mph   85 % 0.00 in
03:50 45.1 °F 41.2 °F 30.00 in ESE 1.2 mph 1.2 mph 86 % 0.00 in
03:55 45.1 °F 40.9 °F 30.01 in Calm     85 % 0.00 in
04:00 45.1 °F 40.9 °F 30.01 in Calm     85 % 0.00 in
04:05 45.0 °F 40.8 °F 30.01 in ESE 1.2 mph 1.2 mph 85 % 0.00 in
04:10 44.9 °F 40.7 °F 30.00 in ESE 1.2 mph   85 % 0.00 in
04:15 44.7 °F 40.5 °F 30.00 in ESE 1.2 mph 1.2 mph 85 % 0.00 in
04:21 44.4 °F 40.5 °F 30.00 in Calm     86 % 0.00 in
04:26 44.0 °F 40.1 °F 30.00 in ESE 1.2 mph   86 % 0.00 in
04:31 43.8 °F 40.2 °F 30.00 in ESE 1.2 mph   87 % 0.00 in
04:36 43.8 °F 40.2 °F 30.00 in Calm     87 % 0.00 in
04:41 43.9 °F 40.3 °F 30.01 in Calm     87 % 0.00 in
04:46 43.9 °F 40.3 °F 30.01 in Calm     87 % 0.00 in
04:51 43.7 °F 40.1 °F 30.01 in Calm     87 % 0.00 in
04:56 43.5 °F 39.9 °F 30.01 in Calm     87 % 0.00 in
05:01 43.3 °F 39.7 °F 30.01 in Calm     87 % 0.00 in
05:06 42.9 °F 39.3 °F 30.01 in Calm     87 % 0.00 in
05:11 42.7 °F 39.4 °F 30.00 in Calm     88 % 0.00 in
05:16 42.6 °F 39.3 °F 30.00 in Calm     88 % 0.00 in
05:21 42.5 °F 39.5 °F 30.00 in Calm     89 % 0.00 in
05:26 42.7 °F 39.7 °F 30.00 in Calm     89 % 0.00 in
05:31 42.7 °F 39.4 °F 30.00 in Calm     88 % 0.00 in
05:36 42.7 °F 39.7 °F 30.00 in Calm     89 % 0.00 in
05:41 42.8 °F 39.5 °F 30.00 in Calm     88 % 0.00 in
05:46 42.7 °F 39.4 °F 30.00 in Calm     88 % 0.00 in
05:51 42.8 °F 39.5 °F 30.00 in Calm     88 % 0.00 in
05:56 42.7 °F 39.4 °F 30.01 in ESE 1.2 mph   88 % 0.00 in
06:01 42.5 °F 39.2 °F 30.01 in Calm     88 % 0.00 in
06:06 42.2 °F 38.9 °F 30.01 in Calm     88 % 0.00 in
06:11 41.9 °F 38.6 °F 30.01 in Calm     88 % 0.00 in
06:16 41.7 °F 38.7 °F 30.01 in Calm     89 % 0.00 in
06:21 41.4 °F 38.1 °F 30.01 in ESE 1.0 mph   88 % 0.00 in
06:26 41.2 °F 38.2 °F 30.01 in Calm     89 % 0.00 in
06:31 41.1 °F 38.1 °F 30.01 in Calm     89 % 0.00 in
06:36 41.0 °F 38.3 °F 30.02 in Calm     90 % 0.00 in
06:41 41.0 °F 38.3 °F 30.02 in Calm     90 % 0.00 in
06:46 40.9 °F 38.2 °F 30.02 in Calm     90 % 0.00 in
06:51 40.9 °F 38.5 °F 30.02 in Calm     91 % 0.00 in
06:56 40.9 °F 38.2 °F 30.02 in Calm     90 % 0.00 in
07:01 41.1 °F 38.7 °F 30.02 in Calm     91 % 0.00 in
07:06 41.3 °F 38.9 °F 30.02 in ESE 1.2 mph 1.2 mph 91 % 0.00 in
07:11 41.7 °F 39.0 °F 30.02 in Calm     90 % 0.00 in
07:16 42.2 °F 39.5 °F 30.01 in Calm     90 % 0.00 in
07:21 42.5 °F 39.5 °F 30.01 in Calm     89 % 0.00 in
07:26 43.0 °F 40.0 °F 30.01 in ESE 1.2 mph   89 % 0.00 in
07:31 43.3 °F 40.0 °F 30.01 in Calm     88 % 0.00 in
07:36 43.5 °F 40.2 °F 30.01 in Calm     88 % 0.00 in
07:41 43.8 °F 40.5 °F 30.01 in Calm     88 % 0.00 in
07:46 44.3 °F 41.0 °F 30.01 in Calm     88 % 0.00 in
07:51 45.0 °F 41.1 °F 30.01 in Calm     86 % 0.00 in
07:56 45.7 °F 41.4 °F 30.01 in Calm     85 % 0.00 in
08:01 46.3 °F 42.0 °F 30.01 in Calm     85 % 0.00 in
08:06 47.5 °F 42.9 °F 30.01 in Calm     84 % 0.00 in
08:11 48.9 °F 43.3 °F 30.01 in Calm     81 % 0.00 in
08:16 50.0 °F 44.1 °F 30.00 in Calm     80 % 0.00 in
08:22 51.0 °F 44.0 °F 30.00 in Calm   0.2 mph 77 % 0.00 in
08:27 51.6 °F 44.3 °F 30.01 in Calm     76 % 0.00 in
08:32 52.3 °F 44.3 °F 30.01 in Calm     74 % 0.00 in
08:37 53.2 °F 44.8 °F 30.01 in Calm     73 % 0.00 in
08:42 53.8 °F 44.6 °F 30.01 in Calm     71 % 0.00 in
08:47 54.1 °F 44.9 °F 30.01 in SSW 1.2 mph 1.2 mph 71 % 0.00 in
08:52 54.4 °F 44.8 °F 30.01 in Calm     70 % 0.00 in
08:57 54.9 °F 44.1 °F 30.01 in SE 2.0 mph 2.0 mph 67 % 0.00 in
09:02 55.2 °F 44.0 °F 30.01 in Calm     66 % 0.00 in
09:07 55.6 °F 44.4 °F 30.00 in Calm     66 % 0.00 in
09:12 55.7 °F 43.7 °F 30.00 in Calm     64 % 0.00 in
09:17 56.5 °F 44.9 °F 30.00 in Calm     65 % 0.00 in
09:22 57.0 °F 44.1 °F 30.00 in Calm     62 % 0.00 in
09:27 57.6 °F 44.2 °F 29.99 in Calm     61 % 0.00 in
09:32 58.0 °F 44.2 °F 29.99 in Calm     60 % 0.00 in
09:37 58.5 °F 43.8 °F 29.99 in SSW 1.2 mph 1.2 mph 58 % 0.00 in
09:42 58.6 °F 43.4 °F 29.99 in ENE 2.3 mph 2.3 mph 57 % 0.00 in
09:47 58.5 °F 42.4 °F 29.99 in Calm     55 % 0.00 in
09:52 59.0 °F 43.8 °F 29.99 in SE 1.2 mph   57 % 0.00 in
09:57 59.6 °F 42.9 °F 29.98 in West 1.2 mph 1.2 mph 54 % 0.00 in
10:02 59.8 °F 43.6 °F 29.98 in Calm     55 % 0.00 in
10:07 60.6 °F 43.9 °F 29.98 in East 2.0 mph 2.0 mph 54 % 0.00 in
10:12 60.4 °F 43.2 °F 29.98 in WNW 3.5 mph 3.5 mph 53 % 0.00 in
10:17 60.1 °F 42.9 °F 29.99 in NW 1.2 mph   53 % 0.00 in
10:22 60.5 °F 43.8 °F 29.98 in SSE 1.2 mph 1.2 mph 54 % 0.00 in
10:27 61.1 °F 43.3 °F 29.98 in NW 1.2 mph 1.2 mph 52 % 0.00 in
10:32 61.2 °F 42.9 °F 29.98 in Calm     51 % 0.00 in
10:37 61.3 °F 43.5 °F 29.97 in Calm     52 % 0.00 in
10:42 61.8 °F 43.5 °F 29.97 in NW 1.2 mph   51 % 0.00 in
10:47 61.6 °F 42.2 °F 29.97 in Calm     49 % 0.00 in
10:52 61.5 °F 42.2 °F 29.97 in NNW 3.5 mph 3.5 mph 49 % 0.00 in
10:57 61.8 °F 41.9 °F 29.96 in NW 1.2 mph 1.2 mph 48 % 0.00 in
11:02 62.1 °F 42.2 °F 29.96 in West 1.2 mph   48 % 0.00 in
11:07 62.6 °F 43.7 °F 29.97 in NW 1.2 mph   50 % 0.00 in
11:12 63.2 °F 41.5 °F 29.97 in NW 1.2 mph   45 % 0.00 in
11:15 63.1 °F 41.4 °F 29.97 in Calm     45 % 0.00 in
11:20 63.1 °F 40.2 °F 29.97 in Calm     43 % 0.00 in
11:25 63.5 °F 41.8 °F 29.96 in SW 1.2 mph 1.2 mph 45 % 0.00 in
11:30 64.3 °F 41.3 °F 29.95 in ESE 1.0 mph   43 % 0.00 in
11:35 64.9 °F 40.6 °F 29.95 in SE 2.3 mph 2.3 mph 41 % 0.00 in
11:40 65.4 °F 37.7 °F 29.95 in Calm   0.3 mph 36 % 0.00 in
11:45 65.3 °F 36.2 °F 29.94 in NW 1.2 mph 1.2 mph 34 % 0.00 in
11:50 65.5 °F 37.8 °F 29.93 in Calm     36 % 0.00 in
11:55 65.8 °F 35.1 °F 29.93 in ENE 1.2 mph   32 % 0.00 in
12:00 65.5 °F 34.8 °F 29.92 in Calm     32 % 0.00 in
12:05 66.0 °F 33.7 °F 29.92 in NW 2.3 mph 2.3 mph 30 % 0.00 in
12:10 66.2 °F 33.0 °F 29.92 in NNW 3.5 mph 3.5 mph 29 % 0.00 in
12:15 65.9 °F 30.9 °F 29.91 in NW 2.3 mph 2.3 mph 27 % 0.00 in
12:20 65.9 °F 33.6 °F 29.90 in Calm     30 % 0.00 in
12:25 66.1 °F 31.1 °F 29.90 in NW 2.3 mph 2.3 mph 27 % 0.00 in
12:30 66.4 °F 33.2 °F 29.90 in Calm     29 % 0.00 in
12:35 66.8 °F 36.0 °F 29.89 in SSW 2.3 mph 2.3 mph 32 % 0.00 in
12:40 67.6 °F 35.0 °F 29.89 in West 1.2 mph 1.2 mph 30 % 0.00 in
12:45 67.5 °F 34.1 °F 29.88 in West 1.2 mph   29 % 0.00 in
12:50 67.6 °F 35.0 °F 29.89 in NW 2.0 mph 2.0 mph 30 % 0.00 in
12:55 67.9 °F 35.3 °F 29.89 in NE 2.3 mph 2.3 mph 30 % 0.00 in
13:00 68.2 °F 33.8 °F 29.89 in NW 1.2 mph   28 % 0.00 in
13:05 68.1 °F 34.6 °F 29.88 in North 5.8 mph 5.8 mph 29 % 0.00 in
13:10 68.2 °F 35.6 °F 29.88 in NW 3.5 mph 3.5 mph 30 % 0.00 in
13:15 68.2 °F 35.6 °F 29.88 in NW 2.0 mph 2.0 mph 30 % 0.00 in
13:20 68.5 °F 37.5 °F 29.87 in NW 3.5 mph 3.5 mph 32 % 0.00 in
13:25 68.8 °F 36.1 °F 29.87 in NW 1.2 mph 1.3 mph 30 % 0.00 in
13:30 68.9 °F 35.3 °F 29.87 in West 3.5 mph 3.5 mph 29 % 0.00 in
13:35 69.1 °F 36.3 °F 29.86 in NNW 3.0 mph 3.0 mph 30 % 0.00 in
13:40 69.3 °F 37.3 °F 29.86 in WNW 1.2 mph 1.2 mph 31 % 0.00 in
13:45 69.5 °F 36.7 °F 29.86 in NNW 3.0 mph 3.0 mph 30 % 0.00 in
13:50 69.8 °F 37.8 °F 29.85 in NW 2.3 mph 2.3 mph 31 % 0.00 in
13:55 69.7 °F 39.3 °F 29.85 in NW 3.5 mph 3.5 mph 33 % 0.00 in
14:00 69.5 °F 39.9 °F 29.84 in WNW 3.5 mph 3.5 mph 34 % 0.00 in
14:05 69.6 °F 40.7 °F 29.83 in NW 3.0 mph 3.0 mph 35 % 0.00 in
14:10 69.6 °F 41.5 °F 29.83 in WNW 2.3 mph 2.3 mph 36 % 0.00 in
14:29 69.7 °F 40.8 °F 29.81 in NW 2.3 mph 2.3 mph 35 % 0.00 in
14:48 69.5 °F 40.6 °F 29.80 in NNE 3.5 mph 3.5 mph 35 % 0.00 in
14:53 69.4 °F 40.5 °F 29.79 in Calm     35 % 0.00 in
14:58 69.2 °F 39.6 °F 29.78 in WSW 1.2 mph   34 % 0.00 in
15:03 69.0 °F 40.9 °F 29.77 in Calm     36 % 0.00 in
15:08 68.9 °F 42.2 °F 29.76 in SE 1.2 mph   38 % 0.00 in
15:13 68.6 °F 42.6 °F 29.74 in SE 1.2 mph   39 % 0.00 in
15:18 68.1 °F 42.2 °F 29.74 in Calm     39 % 0.00 in
15:23 67.7 °F 42.5 °F 29.76 in SE 1.0 mph 1.0 mph 40 % 0.00 in
15:28 67.4 °F 42.2 °F 29.77 in NW 2.3 mph 2.3 mph 40 % 0.00 in
15:33 67.2 °F 42.7 °F 29.77 in WNW 1.2 mph 1.2 mph 41 % 0.00 in
15:38 66.9 °F 42.4 °F 29.77 in Calm     41 % 0.00 in
15:43 66.8 °F 41.0 °F 29.77 in WNW 3.5 mph 3.5 mph 39 % 0.00 in
15:48 66.4 °F 39.3 °F 29.78 in NNW 2.3 mph 2.3 mph 37 % 0.00 in
15:53 66.1 °F 38.4 °F 29.78 in NNW 5.0 mph 5.0 mph 36 % 0.00 in
15:58 65.8 °F 36.6 °F 29.78 in NNW 2.0 mph 2.0 mph 34 % 0.00 in
16:03 65.7 °F 36.5 °F 29.78 in NW 2.0 mph 2.0 mph 34 % 0.00 in
16:08 65.6 °F 36.5 °F 29.79 in West 2.3 mph 2.3 mph 34 % 0.00 in
16:13 65.6 °F 35.7 °F 29.78 in SSW 3.5 mph 3.5 mph 33 % 0.00 in
16:18 65.5 °F 36.4 °F 29.79 in West 1.2 mph 1.2 mph 34 % 0.00 in
16:23 65.3 °F 36.9 °F 29.78 in WNW 2.3 mph 2.3 mph 35 % 0.00 in
16:28 65.1 °F 36.8 °F 29.78 in WNW 3.5 mph 3.5 mph 35 % 0.00 in
16:33 64.6 °F 36.3 °F 29.78 in Calm   0.1 mph 35 % 0.00 in
16:38 64.1 °F 36.6 °F 29.77 in Calm     36 % 0.00 in
16:43 63.7 °F 36.2 °F 29.77 in Calm     36 % 0.00 in
16:48 63.4 °F 37.3 °F 29.78 in NW 1.2 mph   38 % 0.00 in
16:53 63.1 °F 37.1 °F 29.77 in Calm     38 % 0.00 in
16:58 62.9 °F 36.9 °F 29.77 in Calm     38 % 0.00 in
17:03 62.8 °F 36.8 °F 29.76 in Calm     38 % 0.00 in
17:08 62.5 °F 39.1 °F 29.76 in Calm     42 % 0.00 in
17:13 62.1 °F 38.7 °F 29.76 in Calm     42 % 0.00 in
17:18 61.6 °F 41.2 °F 29.76 in Calm     47 % 0.00 in
17:23 61.1 °F 41.8 °F 29.76 in Calm     49 % 0.00 in
17:28 60.5 °F 40.7 °F 29.76 in Calm     48 % 0.00 in
17:34 60.0 °F 40.8 °F 29.76 in NNW 1.2 mph   49 % 0.00 in
17:39 59.6 °F 40.4 °F 29.75 in Calm     49 % 0.00 in
17:44 59.1 °F 41.5 °F 29.74 in SE 1.2 mph   52 % 0.00 in
17:49 58.5 °F 41.4 °F 29.73 in ESE 1.2 mph 1.2 mph 53 % 0.00 in
17:54 58.1 °F 40.6 °F 29.72 in ESE 1.2 mph 1.2 mph 52 % 0.00 in
17:59 58.0 °F 39.5 °F 29.73 in Calm     50 % 0.00 in
18:04 58.0 °F 40.0 °F 29.73 in Calm     51 % 0.00 in
18:09 58.1 °F 39.5 °F 29.73 in Calm     50 % 0.00 in
18:14 58.1 °F 40.6 °F 29.74 in Calm     52 % 0.00 in
18:19 57.9 °F 40.9 °F 29.74 in Calm     53 % 0.00 in
18:24 57.3 °F 41.3 °F 29.74 in Calm     55 % 0.00 in
18:29 56.8 °F 41.3 °F 29.74 in Calm     56 % 0.00 in
18:34 56.3 °F 40.8 °F 29.74 in Calm     56 % 0.00 in
18:39 56.0 °F 41.9 °F 29.74 in SE 1.2 mph 1.2 mph 59 % 0.00 in
18:44 55.5 °F 41.4 °F 29.74 in Calm     59 % 0.00 in
18:49 54.7 °F 41.9 °F 29.74 in Calm     62 % 0.00 in
18:54 54.0 °F 40.8 °F 29.73 in Calm     61 % 0.00 in
18:59 53.9 °F 40.3 °F 29.73 in Calm     60 % 0.00 in
19:04 53.8 °F 40.2 °F 29.73 in SE 1.2 mph   60 % 0.00 in
19:09 53.4 °F 40.3 °F 29.73 in Calm     61 % 0.00 in
19:14 52.8 °F 40.5 °F 29.73 in Calm     63 % 0.00 in
19:19 52.4 °F 40.2 °F 29.73 in Calm     63 % 0.00 in
19:24 52.1 °F 39.9 °F 29.74 in Calm     63 % 0.00 in
19:29 52.0 °F 40.2 °F 29.74 in Calm     64 % 0.00 in
19:34 51.7 °F 39.9 °F 29.74 in Calm     64 % 0.00 in
19:39 51.7 °F 40.3 °F 29.74 in Calm     65 % 0.00 in
19:44 51.7 °F 39.9 °F 29.75 in Calm     64 % 0.00 in
19:49 51.5 °F 40.9 °F 29.75 in Calm     67 % 0.00 in
19:54 51.3 °F 40.3 °F 29.75 in Calm     66 % 0.00 in
19:59 51.0 °F 40.4 °F 29.75 in Calm     67 % 0.00 in
20:04 51.0 °F 41.2 °F 29.76 in Calm     69 % 0.00 in
20:09 50.9 °F 40.3 °F 29.76 in SSE 1.0 mph   67 % 0.00 in
20:14 51.0 °F 39.6 °F 29.76 in SE 1.2 mph 1.2 mph 65 % 0.00 in
20:19 50.9 °F 39.9 °F 29.77 in East 1.2 mph 1.2 mph 66 % 0.00 in
20:24 50.7 °F 39.7 °F 29.77 in Calm     66 % 0.00 in
20:29 50.8 °F 39.5 °F 29.78 in NW 3.5 mph 3.5 mph 65 % 0.00 in
20:34 51.3 °F 39.5 °F 29.78 in NW 2.3 mph 2.3 mph 64 % 0.00 in
20:39 51.8 °F 38.8 °F 29.78 in WNW 1.2 mph 1.2 mph 61 % 0.00 in
20:44 52.6 °F 38.7 °F 29.78 in NW 4.6 mph 4.6 mph 59 % 0.00 in
20:49 53.3 °F 38.9 °F 29.78 in NW 3.5 mph 3.5 mph 58 % 0.00 in
20:54 53.6 °F 39.2 °F 29.77 in NW 1.2 mph 1.2 mph 58 % 0.00 in
20:59 53.7 °F 38.8 °F 29.78 in NW 3.5 mph 3.5 mph 57 % 0.00 in
21:04 53.7 °F 38.8 °F 29.78 in Calm     57 % 0.00 in
21:09 53.4 °F 38.5 °F 29.78 in NW 1.2 mph 1.2 mph 57 % 0.00 in
21:14 53.2 °F 38.8 °F 29.78 in NNW 1.2 mph 1.2 mph 58 % 0.00 in
21:19 53.0 °F 38.6 °F 29.78 in Calm     58 % 0.00 in
21:24 52.4 °F 38.9 °F 29.79 in Calm     60 % 0.00 in
21:29 51.7 °F 39.1 °F 29.79 in Calm     62 % 0.00 in
21:34 51.0 °F 38.8 °F 29.79 in Calm     63 % 0.00 in
21:39 50.8 °F 39.1 °F 29.80 in Calm   0.2 mph 64 % 0.00 in
21:44 50.8 °F 39.1 °F 29.80 in NW 1.2 mph 1.2 mph 64 % 0.00 in
21:49 50.7 °F 39.0 °F 29.80 in NW 2.0 mph 2.0 mph 64 % 0.00 in
21:54 51.1 °F 39.3 °F 29.80 in WNW 5.0 mph 5.0 mph 64 % 0.00 in
21:59 51.6 °F 39.4 °F 29.80 in WNW 3.5 mph 3.5 mph 63 % 0.00 in
22:04 51.8 °F 39.6 °F 29.80 in WNW 3.5 mph 3.5 mph 63 % 0.00 in
22:09 52.0 °F 39.8 °F 29.81 in NW 3.5 mph 3.5 mph 63 % 0.00 in
22:14 51.9 °F 40.1 °F 29.81 in NW 3.5 mph 3.5 mph 64 % 0.00 in
22:19 51.6 °F 39.8 °F 29.81 in NW 1.2 mph 1.2 mph 64 % 0.00 in
22:24 51.3 °F 39.9 °F 29.81 in WNW 1.2 mph 1.2 mph 65 % 0.00 in
22:29 51.0 °F 40.0 °F 29.81 in WNW 1.2 mph 1.2 mph 66 % 0.00 in
22:34 50.7 °F 40.1 °F 29.82 in Calm   0.1 mph 67 % 0.00 in
22:39 50.4 °F 39.9 °F 29.82 in Calm     67 % 0.00 in
22:44 50.0 °F 39.8 °F 29.82 in Calm     68 % 0.00 in
22:49 49.6 °F 40.2 °F 29.83 in Calm     70 % 0.00 in
22:54 49.0 °F 40.4 °F 29.83 in Calm     72 % 0.00 in
22:59 48.3 °F 40.0 °F 29.83 in Calm     73 % 0.00 in
23:04 47.7 °F 39.8 °F 29.84 in Calm     74 % 0.00 in
23:09 47.0 °F 39.8 °F 29.84 in Calm     76 % 0.00 in
23:14 46.5 °F 39.7 °F 29.84 in Calm   0.6 mph 77 % 0.00 in
23:19 46.1 °F 39.6 °F 29.85 in Calm     78 % 0.00 in
23:24 45.9 °F 39.4 °F 29.85 in Calm     78 % 0.00 in
23:29 45.7 °F 39.2 °F 29.85 in Calm     78 % 0.00 in
23:34 45.5 °F 39.0 °F 29.85 in Calm     78 % 0.00 in
23:39 45.0 °F 38.9 °F 29.85 in Calm     79 % 0.00 in
23:44 44.8 °F 39.0 °F 29.85 in Calm     80 % 0.00 in
23:50 45.0 °F 39.2 °F 29.85 in Calm     80 % 0.00 in
23:55 45.1 °F 39.0 °F 29.85 in Calm     79 % 0.00 in
Park Place, Exeter, Tulare County, California, USA
Compliments of Weather Underground - 2.75 mb